x

8419317 - Wells, Me (welm1) Weather Station

12:30 - Sun 31st Aug 2014 All times are EDT. -4 hours from GMT.

  • Wind
    7mph, 8mph gusts
  • Sea Temp 60°f
  • Aire Temp 65°f
  • Sea Pressure 1018.4mb
  • 8419317 - Wells, Me
  • 8419317 - Wells, Me

More Historic Weather Station data

Upgrade to MSW Pro to gain access to the past 30 days of data for over 8000 Wavebouys and Weather Stations around the globe.

Join Pro

Comparision Forecast

View Surf forecast
   
dom 08/31 12:30 7 8 mph 1018.4mb 60f 65f
12:24 6 7 mph 1018.5mb 60f 65f
12:18 7 8 mph 1018.4mb 60f 65f
12:12 7 8 mph 1018.5mb 61f 65f
12:06 7 8 mph 1018.6mb 61f 65f
12:00 7 8 mph 1018.6mb 62f 65f
sáb 08/30 11:54 7 10 mph 1018.5mb 62f 64f
11:48 9 11 mph 1018.6mb 63f 65f
11:42 10 11 mph 1018.6mb 64f 66f
11:36 9 10 mph 1018.5mb 65f 66f
11:30 9 10 mph 1018.5mb 65f 65f
11:24 8 9 mph 1018.7mb 65f 65f
11:18 8 10 mph 1018.7mb 65f 65f
11:12 8 11 mph 1018.7mb 65f 65f
11:06 8 11 mph 1018.8mb 65f 65f
11:00 9 11 mph 1018.7mb 65f 65f
10:54 9 14 mph 1018.8mb 65f 66f
10:48 9 13 mph 1018.9mb 65f 66f
10:42 9 13 mph 1018.9mb 65f 66f
10:36 10 13 mph 1018.9mb 65f 66f
10:30 8 11 mph 1018.9mb 65f 65f
10:24 9 11 mph 1018.9mb 65f 65f
10:18 8 9 mph 1019mb 64f 65f
10:12 6 7 mph 1019.1mb 64f 65f
10:06 6
mph
1019mb 64f 64f
10:00 5 6 mph 1019.1mb 64f 64f
9:54 6
mph
1019mb 64f 64f
9:48 5 7 mph 1019mb 64f 64f
9:42 6 7 mph 1019mb 64f 64f
9:36 6 7 mph 1019mb 64f 64f
9:30 5
mph
1019mb 64f 64f
9:24 5 6 mph 1019mb 64f 64f
9:18 5 6 mph 1019mb 64f 64f
9:12 5 6 mph 1019mb 64f 64f
9:06 3 5 mph 1019.1mb 64f 64f
9:00 3 6 mph 1019.2mb 64f 64f
8:54 5
mph
1019.2mb 64f 64f
8:48 5 7 mph 1019.2mb 64f 65f
8:42 6 7 mph 1019.2mb 64f 65f
8:36 7 9 mph 1019.2mb 64f 65f
8:30 8 10 mph 1019.1mb 64f 65f
8:24 8 9 mph 1019.2mb 63f 65f
8:18 9 13 mph 1019.2mb 63f 66f
8:12 11 14 mph 1019.2mb 63f 66f
8:06 11 14 mph 1019.2mb 63f 66f
8:00 10 15 mph 1019.2mb 63f 66f
7:54 11 14 mph 1019.2mb 63f 66f
7:48 10 13 mph 1019.2mb 63f 66f
7:42 9 13 mph 1019.2mb 63f 66f
7:36 11 16 mph 1019.3mb 63f 66f
7:30 15 20 mph 1019.3mb 63f 66f
7:24 16 18 mph 1019.2mb 63f 66f
7:18 16 20 mph 1019.3mb 64f 66f
7:12 14 18 mph 1019.4mb 64f 66f
7:06 10 16 mph 1019.4mb 64f 66f
7:00 11 15 mph 1019.5mb 64f 66f
6:54 14 17 mph 1019.5mb 64f 66f
6:48 14 16 mph 1019.5mb 64f 66f
6:42 14 18 mph 1019.6mb 64f 66f
6:36 15 17 mph 1019.6mb 64f 66f
6:30 14 17 mph 1019.7mb 64f 66f
6:24 16 20 mph 1019.9mb 65f 66f
6:18 15 17 mph 1019.9mb 64f 66f
6:12 14 20 mph 1019.9mb 64f 66f
6:06 16 18 mph 1020mb 64f 66f
6:00 17 21 mph 1020.2mb 64f 66f
5:54 17 22 mph 1020.3mb 64f 66f
5:48 17 21 mph 1020.3mb 64f 66f
5:42 16 20 mph 1020.4mb 64f 66f
5:36 17 21 mph 1020.3mb 64f 66f
5:30 16 20 mph 1020.3mb 64f 66f
5:24 16 20 mph 1020.4mb 63f 66f
5:18 15 18 mph 1020.4mb 63f 66f
5:12 16 20 mph 1020.5mb 63f 66f
5:06 17 21 mph 1020.5mb 63f 66f
5:00 17 22 mph 1020.7mb 63f 66f
4:54 17 21 mph 1020.8mb 63f 66f
4:48 17 21 mph 1020.9mb 63f 66f
4:42 14 18 mph 1021mb 62f 66f
4:36 15 21 mph 1021.1mb 62f 65f
4:30 15 21 mph 1021.1mb 62f 65f
4:24 16 21 mph 1021.2mb 62f 65f
4:18 16 21 mph 1021.2mb 62f 65f
4:12 16 20 mph 1021.2mb 62f 65f
4:06 16 21 mph 1021.3mb 62f 65f
4:00 15 18 mph 1021.4mb 62f 65f
3:54 14 20 mph 1021.5mb 62f 65f
3:48 15 18 mph 1021.5mb 61f 65f
3:42 16 18 mph 1021.6mb 61f 65f
3:36 16 18 mph 1021.6mb 61f 65f
3:30 16 21 mph 1021.5mb 61f 65f
3:24 17 21 mph 1021.6mb 61f 65f
3:18 17 20 mph 1021.7mb 61f 65f
3:12 16 20 mph 1021.8mb 61f 65f
3:06 16 21 mph 1021.9mb 61f 65f
3:00 17 21 mph 1022mb 61f 65f
2:54 15 20 mph 1022.1mb 61f 65f
2:48 17 20 mph 1022.1mb 61f 65f
2:42 18 22 mph 1022.2mb 61f 65f
2:36 17 21 mph 1022.2mb 61f 65f
2:30 16 22 mph 1022.2mb 61f 65f
2:24 16 21 mph 1022.3mb 61f 65f
2:18 17 22 mph 1022.4mb 61f 65f
2:12 17 20 mph 1022.5mb 61f 65f
2:06 17 21 mph 1022.6mb 61f 65f
2:00 16 21 mph 1022.6mb 61f 65f
1:54 17 22 mph 1022.7mb 61f 65f
1:48 17 21 mph 1022.8mb 61f 65f
1:42 17 21 mph 1022.9mb 62f 65f
1:36 20 24 mph 1023mb 62f 64f
1:30 20 24 mph 1023mb 62f 65f
1:24 17 22 mph 1023.2mb 62f 65f
1:18 18 21 mph 1023.3mb 62f 65f
1:12 17 22 mph 1023.4mb 62f 65f
1:06 18 24 mph 1023.5mb 62f 65f
1:00 20 25 mph 1023.4mb 62f 65f
12:54 18 24 mph 1023.5mb 62f 65f
12:48 17 22 mph 1023.6mb 62f 65f
12:42 18 22 mph 1023.6mb 62f 65f
12:36 15 20 mph 1023.7mb 62f 65f
12:30 17 22 mph 1023.7mb 62f 65f
12:24 16 20 mph 1023.8mb 62f 65f
12:18 15 18 mph 1023.9mb 62f 65f
12:12 15 20 mph 1024mb 62f 65f
12:06 18 22 mph 1024mb 62f 65f
12:00 18 22 mph 1024.1mb 62f 65f
11:54 17 21 mph 1024mb 62f 65f
11:48 17 22 mph 1024.1mb 62f 65f
11:42 16 21 mph 1024.1mb 62f 65f
11:36 16 20 mph 1024.1mb 62f 65f
11:30 15 18 mph 1024.1mb 62f 65f
11:24 16 22 mph 1024mb 61f 65f
11:18 17 21 mph 1024.2mb 61f 65f
11:12 16 22 mph 1024.2mb 61f 65f
11:06 18 21 mph 1024.3mb 61f 65f
11:00 17 22 mph 1024.4mb 61f 64f
10:54 17 20 mph 1024.4mb 61f 65f
10:48 16 20 mph 1024.4mb 61f 65f
10:42 16 20 mph 1024.4mb 61f 65f
10:36 16 18 mph 1024.4mb 61f 64f
10:30 15 18 mph 1024.4mb 61f 64f
10:24 14 17 mph 1024.4mb 61f 65f
10:18 15 16 mph 1024.4mb 61f 64f
10:12 13 15 mph 1024.5mb 61f 64f
10:06 13 15 mph 1024.4mb 61f 64f
10:00 14 16 mph 1024.6mb 61f 64f
9:54 13 20 mph 1024.6mb 61f 64f
9:48 11 15 mph 1024.6mb 61f 65f
9:42 10 14 mph 1024.7mb 61f 65f
9:36 10 14 mph 1024.6mb 61f 65f
9:30 10 17 mph 1024.7mb 61f 65f
9:24 11 15 mph 1024.7mb 61f 64f
9:18 9 15 mph 1024.8mb 61f 64f
9:12 8 11 mph 1024.8mb 61f 64f
9:06 7 9 mph 1024.8mb 61f 64f
9:00 7 13 mph 1024.7mb 61f 64f
8:54 10 14 mph 1024.7mb 61f 63f
8:48 10 13 mph 1024.7mb 61f 63f
8:42 8 10 mph 1024.7mb 61f 63f
8:36 9 14 mph 1024.7mb 61f 62f
8:30 13 15 mph 1024.7mb 61f 62f
8:24 9 13 mph 1024.8mb 61f 62f
8:18 2 3 mph 1024.8mb 61f 62f
8:12 2 3 mph 1024.9mb 61f 62f
8:06 2 3 mph 1024.9mb 61f 61f
8:00 2 3 mph 1024.9mb 61f 61f
7:54 2 5 mph 1025mb 61f 61f
7:48 2 5 mph 1025.1mb 61f 61f
7:42 2 5 mph 1025.1mb 61f 61f
7:36 2 6 mph 1025.1mb 61f 61f
7:30 2 5 mph 1025.1mb 61f 61f
7:24 2 3 mph 1025.1mb 61f 60f
7:18 1 2 mph 1025.1mb 61f 59f
7:12 1 2 mph 1025mb 61f 59f
7:06 1 3 mph 1025mb 61f 58f
7:00 2 3 mph 1025mb 61f 58f
6:54 2 5 mph 1025.1mb 61f 58f
6:48 3 6 mph 1025mb 61f 58f
6:42 3 5 mph 1025mb 61f 57f
6:36 3 5 mph 1025mb 61f 57f
6:30 2 3 mph 1025mb 61f 56f
6:24 1 2 mph 1025mb 61f 56f
6:18 1 3 mph 1025mb 61f 56f
6:12 2 5 mph 1024.9mb 61f 56f
6:06 2 3 mph 1024.8mb 61f 56f
6:00 2 3 mph 1024.9mb 61f 56f
5:54 2 3 mph 1024.8mb 61f 56f
5:48 2 3 mph 1024.8mb 61f 56f
5:42 1 3 mph 1024.8mb 61f 56f
5:36 3 5 mph 1024.7mb 61f 56f
5:30 1 3 mph 1024.7mb 61f 55f
5:24 1 3 mph 1024.7mb 61f 56f
5:18 2 3 mph 1024.8mb 61f 55f
5:12 1
mph
1024.7mb 61f 54f
5:06 1 2 mph 1024.7mb 61f 54f
5:00 2 3 mph 1024.6mb 61f 55f
4:54 2 3 mph 1024.6mb 61f 55f
4:48 1 3 mph 1024.5mb 61f 56f
4:42 3 5 mph 1024.6mb 61f 56f
4:36 2 3 mph 1024.7mb 61f 55f
4:30 2 3 mph 1024.7mb 61f 55f
4:24  -  2 mph 1024.6mb 61f 55f
4:18  -  1 mph 1024.7mb 61f 55f
4:12  -  2 mph 1024.7mb 61f 55f
4:06 1 2 mph 1024.8mb 61f 55f
4:00 1 2 mph 1024.8mb 61f 55f
3:54  -  1 mph 1024.8mb 61f 55f
3:48  -  1 mph 1024.8mb 61f 55f
3:42 1 2 mph 1024.7mb 61f 55f
3:36 1
mph
1024.6mb 61f 55f
3:30 1 3 mph 1024.5mb 61f 57f
3:24 2 3 mph 1024.6mb 61f 57f
3:18 2 5 mph 1024.6mb 61f 57f
3:12 3 5 mph 1024.6mb 61f 57f
3:06 3 5 mph 1024.6mb 61f 57f
3:00 2 3 mph 1024.5mb 61f 57f
2:54 2 3 mph 1024.6mb 61f 57f
2:48 2 5 mph 1024.6mb 61f 57f
2:42 1 3 mph 1024.6mb 61f 57f
2:36 2
mph
1024.7mb 61f 57f
2:30 1 2 mph 1024.8mb 61f 57f
2:24 2
mph
1024.8mb 61f 57f
2:18 2 3 mph 1024.8mb 61f 57f
2:12 2 3 mph 1024.8mb 61f 57f
2:06 2
mph
1024.8mb 61f 56f
2:00 2 3 mph 1024.8mb 61f 56f
1:54 2 3 mph 1024.8mb 61f 56f
1:48 2 3 mph 1024.8mb 61f 56f
1:42 2
mph
1024.8mb 61f 56f
1:36 2 5 mph 1024.8mb 61f 56f
1:30 2 3 mph 1024.8mb 61f 56f
1:24 2 3 mph 1024.8mb 61f 56f
1:18 1 3 mph 1024.8mb 61f 56f
1:12 3 5 mph 1024.7mb 61f 56f
1:06 3
mph
1024.7mb 61f 56f
1:00 3
mph
1024.6mb 61f 56f
12:54 2 5 mph 1024.5mb 61f 56f
12:48 3
mph
1024.4mb 61f 56f
12:42 3 5 mph 1024.4mb 61f 56f
12:36 5 6 mph 1024.4mb 61f 56f
12:30 3 5 mph 1024.5mb 61f 56f
12:24 3 6 mph 1024.5mb 61f 56f
12:18 3 5 mph 1024.5mb 61f 56f
12:12 2 5 mph 1024.5mb 61f 56f
12:06 3 5 mph 1024.4mb 61f 56f
12:00 2 5 mph 1024.4mb 61f 56f
vie 08/29 11:54 3 6 mph 1024.3mb 61f 57f
11:48 3 6 mph 1024.2mb 61f 57f
11:42 3 6 mph 1024.2mb 61f 57f
11:36 3 5 mph 1024.1mb 61f 57f
11:30 3 5 mph 1024.1mb 61f 57f
11:24 2 3 mph 1024mb 62f 57f
11:18 2 5 mph 1024mb 62f 57f
11:12 3
mph
1023.9mb 62f 57f
11:06 2 5 mph 1023.9mb 62f 57f
11:00 3 5 mph 1024mb 63f 58f
10:54 5 6 mph 1024mb 63f 58f
10:48 3 6 mph 1024mb 64f 58f
10:42 5 6 mph 1024mb 64f 58f
10:36 3 5 mph 1024mb 64f 58f
10:30 3 6 mph 1024mb 64f 58f
10:24 3 6 mph 1024mb 64f 58f
10:18 3 6 mph 1023.9mb 64f 58f
10:12 3 5 mph 1023.9mb 64f 58f
10:06 1 3 mph 1023.8mb 64f 58f
10:00 2 3 mph 1023.8mb 64f 58f
9:54 2 3 mph 1023.8mb 64f 58f
9:48 2
mph
1023.8mb 64f 58f
9:42  -  3 mph 1023.7mb 64f 58f
9:36 2 5 mph 1023.7mb 63f 59f
9:30 2 3 mph 1023.7mb 63f 58f
9:24 1 3 mph 1023.8mb 63f 58f
9:18 2 3 mph 1023.7mb 63f 59f
9:12 1 2 mph 1023.7mb 63f 59f
9:06 2 3 mph 1023.7mb 63f 59f
9:00 2 3 mph 1023.6mb 63f 59f
8:54 2 3 mph 1023.5mb 62f 59f
8:48 2 3 mph 1023.5mb 62f 59f
8:42 2 3 mph 1023.5mb 62f 59f
8:36 2 3 mph 1023.5mb 62f 59f
8:30 3
mph
1023.5mb 62f 60f
8:24 2 3 mph 1023.5mb 62f 60f
8:18 3
mph
1023.4mb 62f 60f
8:12 2 3 mph 1023.3mb 62f 60f
8:06 2 3 mph 1023.2mb 62f 61f
8:00 1 5 mph 1023.2mb 62f 61f
7:54 5
mph
1023.2mb 62f 61f
7:48 5 6 mph 1023.2mb 62f 61f
7:42 5 6 mph 1023.1mb 61f 61f
7:36 6 7 mph 1023.2mb 61f 61f
7:30 5 7 mph 1023.1mb 61f 62f
7:24 7 8 mph 1023mb 61f 62f
7:18 7 8 mph 1023mb 61f 62f
7:12 7 10 mph 1023mb 61f 63f
7:06 9 11 mph 1023.1mb 61f 63f
7:00 9 11 mph 1023mb 61f 63f
6:54 9 10 mph 1022.9mb 61f 63f
6:48 9 11 mph 1022.8mb 62f 63f
6:42 10 11 mph 1022.8mb 62f 63f
6:36 10 13 mph 1022.7mb 62f 64f
6:30 9 11 mph 1022.7mb 63f 64f
6:24 9 13 mph 1022.6mb 63f 64f
6:18 9 11 mph 1022.6mb 63f 64f
6:12 10 11 mph 1022.5mb 63f 64f
6:06 9 13 mph 1022.5mb 63f 64f
6:00 9 11 mph 1022.5mb 63f 64f
5:54 9 11 mph 1022.4mb 63f 64f
5:48 9 11 mph 1022.5mb 63f 64f
5:42 9 11 mph 1022.4mb 62f 64f
5:36 9 10 mph 1022.3mb 62f 64f
5:30 8 10 mph 1022.2mb 62f 64f
5:24 8 10 mph 1022.3mb 62f 64f
5:18 9 11 mph 1022.3mb 62f 64f
5:12 9 11 mph 1022.3mb 62f 64f
5:06 9 11 mph 1022.2mb 62f 64f
5:00 9 11 mph 1022.3mb 62f 64f
4:54 9 10 mph 1022.2mb 62f 64f
4:48 10 13 mph 1022.2mb 61f 63f
4:42 10 13 mph 1022.3mb 61f 64f
4:36 11 13 mph 1022.2mb 61f 63f
4:30 10 11 mph 1022.2mb 61f 64f
4:24 9 13 mph 1022.1mb 61f 64f
4:18 11 13 mph 1022.3mb 61f 63f
4:12 10 13 mph 1022.2mb 61f 64f
4:06 10 13 mph 1022.2mb 61f 63f
4:00 9 11 mph 1022.3mb 61f 63f
3:54 9 13 mph 1022.3mb 61f 63f
3:48 10 13 mph 1022.3mb 61f 63f
3:42 10 13 mph 1022.3mb 61f 63f
3:36 9 10 mph 1022.3mb 61f 63f
3:30 9 11 mph 1022.3mb 61f 63f
3:24 9 11 mph 1022.4mb 61f 63f
3:18 10 11 mph 1022.3mb 61f 63f
3:12 8 11 mph 1022.2mb 61f 63f
3:06 9 10 mph 1022.1mb 60f 63f
3:00 9 11 mph 1022.1mb 60f 63f
2:54 8 10 mph 1022.2mb 60f 64f
2:48 8 10 mph 1022.1mb 60f 64f
2:42 9 10 mph 1022.1mb 60f 64f
2:36 8 13 mph 1022mb 60f 64f
2:30 9 11 mph 1022mb 60f 63f
2:24 9 10 mph 1022mb 60f 63f
2:18 7 11 mph 1022mb 60f 63f
2:12 8 10 mph 1022.1mb 60f 64f
2:06 7 10 mph 1022.1mb 60f 63f
2:00 7 10 mph 1022.2mb 60f 63f
1:54 8 10 mph 1022.1mb 60f 63f
1:48 9 10 mph 1022.2mb 60f 63f
1:42 8 10 mph 1022.1mb 60f 64f
1:36 8 11 mph 1022mb 60f 63f
1:30 8 10 mph 1021.9mb 60f 63f
1:24 8 11 mph 1021.9mb 60f 63f
1:18 9 11 mph 1021.9mb 60f 63f
1:12 8 11 mph 1021.8mb 60f 63f
1:06 9 11 mph 1021.7mb 59f 63f
1:00 9 11 mph 1021.7mb 59f 63f
12:54 10 11 mph 1021.7mb 59f 62f
12:48 10 13 mph 1021.8mb 59f 62f
12:42 9 11 mph 1021.8mb 59f 62f
12:36 10 13 mph 1021.9mb 59f 62f
12:30 10 13 mph 1021.9mb 59f 62f
12:24 9 11 mph 1022mb 59f 62f
12:18 9 11 mph 1022mb 59f 62f
12:12 9 13 mph 1021.9mb 59f 62f
12:06 9 11 mph 1022mb 59f 62f
12:00 9 11 mph 1022mb 59f 62f
11:54 9 11 mph 1021.9mb 59f 62f
11:48 9 13 mph 1021.8mb 59f 62f
11:42 10 14 mph 1021.7mb 59f 62f
11:36 10 11 mph 1021.7mb 59f 62f
11:30 9 13 mph 1021.6mb 59f 62f
11:24 10 13 mph 1021.6mb 59f 62f
11:18 9 13 mph 1021.6mb 59f 62f
11:12 9 14 mph 1021.6mb 58f 62f
11:06 11 13 mph 1021.5mb 58f 62f
11:00 11 14 mph 1021.3mb 58f 62f
10:54 10 14 mph 1021.2mb 59f 62f
10:48 13 15 mph 1021.2mb 59f 61f
10:42 11 14 mph 1021.2mb 58f 62f
10:36 10 14 mph 1021.2mb 58f 62f
10:30 10 14 mph 1021.1mb 58f 62f
10:24 10 13 mph 1021mb 58f 61f
10:18 9 13 mph 1020.9mb 58f 62f
10:12 9 13 mph 1020.9mb 58f 62f
10:06 8 11 mph 1020.9mb 58f 62f
10:00 9 11 mph 1020.9mb 58f 62f
9:54 9 10 mph 1020.8mb 58f 62f
9:48 8 10 mph 1020.8mb 58f 62f
9:42 8 10 mph 1020.8mb 58f 62f
9:36 7 9 mph 1020.7mb 58f 62f
9:30 8 10 mph 1020.6mb 57f 62f
9:24 8 9 mph 1020.6mb 57f 62f
9:18 6 7 mph 1020.4mb 57f 63f
9:12 6 7 mph 1020.4mb 57f 63f
9:06 6 8 mph 1020.3mb 57f 63f
9:00 6 7 mph 1020.2mb 57f 63f
8:54 5 7 mph 1020mb 57f 64f
8:48 5 9 mph 1019.8mb 57f 64f
8:42 6 8 mph 1019.7mb 57f 63f
8:36 7 9 mph 1019.6mb 57f 63f
8:30 7 10 mph 1019.5mb 57f 63f
8:24 6 9 mph 1019.4mb 57f 63f
8:18 7 10 mph 1019.4mb 57f 63f
8:12 8 11 mph 1019.2mb 57f 62f
8:06 8 10 mph 1019.1mb 57f 62f
8:00 9 11 mph 1019mb 57f 62f
7:54 8 11 mph 1019mb 57f 62f
7:48 7 10 mph 1018.9mb 57f 62f
7:42 7 9 mph 1018.8mb 57f 61f
7:36 7 10 mph 1018.8mb 57f 61f
7:30 7 9 mph 1018.7mb 57f 61f
7:24 7 8 mph 1018.7mb 57f 60f
7:18 7 9 mph 1018.7mb 57f 59f
7:12 6 9 mph 1018.7mb 57f 58f
7:06 7 8 mph 1018.6mb 57f 58f
7:00 6 7 mph 1018.5mb 57f 58f
6:54 5 8 mph 1018.4mb 57f 57f
6:48 7 9 mph 1018.2mb 57f 56f
6:42 7 8 mph 1018.2mb 57f 56f
6:36 6 8 mph 1018.1mb 57f 56f
6:30 6 8 mph 1018.1mb 57f 56f
6:24 7 9 mph 1017.9mb 57f 55f
6:18 8 10 mph 1017.7mb 57f 55f
6:12 9 10 mph 1017.6mb 56f 55f
6:06 9 13 mph 1017.4mb 56f 56f
6:00 10 13 mph 1017.3mb 57f 56f
5:54 9 11 mph 1017.2mb 56f 56f
5:48 9 11 mph 1017.1mb 56f 56f
5:42 8 13 mph 1017mb 57f 56f
5:36 8 11 mph 1016.9mb 57f 56f
5:30 7 10 mph 1016.9mb 56f 56f
5:24 6 9 mph 1016.7mb 56f 56f
5:18 7 10 mph 1016.7mb 56f 55f
5:12 6 8 mph 1016.6mb 56f 56f
5:06 6 8 mph 1016.5mb 56f 56f
5:00 6 9 mph 1016.5mb 56f 56f
4:54 6 9 mph 1016.3mb 56f 56f
4:48 7 10 mph 1016.2mb 56f 56f
4:42 6 9 mph 1016.1mb 56f 56f
4:36 7 10 mph 1016.1mb 56f 56f
4:30 6 8 mph 1016.1mb 56f 55f
4:24 5 8 mph 1016.1mb 56f 56f
4:18 6 8 mph 1016mb 56f 57f
4:12 6 9 mph 1015.9mb 56f 57f
4:06 6 10 mph 1015.8mb 56f 56f
4:00 7 9 mph 1015.8mb 56f 57f
3:54 6 10 mph 1015.8mb 56f 57f
3:48 7 10 mph 1015.8mb 56f 56f
3:42 7 9 mph 1015.8mb 56f 56f
3:36 6 8 mph 1015.7mb 56f 56f
3:30 6 9 mph 1015.7mb 55f 57f
3:24 6 8 mph 1015.6mb 55f 57f
3:18 5 8 mph 1015.5mb 55f 57f
3:12 6 8 mph 1015.4mb 55f 57f
3:06 6 8 mph 1015.4mb 55f 57f
3:00 6 8 mph 1015.3mb 55f 58f
2:54 5 7 mph 1015.2mb 55f 58f
2:48 3 6 mph 1015.2mb 55f 58f
2:42 2 6 mph 1015.2mb 55f 58f
2:36 3 8 mph 1015.2mb 55f 59f
2:30 5 9 mph 1015.1mb 55f 59f
2:24 8 11 mph 1015mb 55f 59f
2:18 8 10 mph 1015mb 55f 58f
2:12 7 9 mph 1015mb 55f 58f
2:06 6 7 mph 1014.9mb 55f 58f
2:00 5 6 mph 1015mb 55f 58f
1:54 3 6 mph 1015mb 55f 57f
1:48 6 7 mph 1014.9mb 55f 57f
1:42 6 7 mph 1014.9mb 55f 58f
1:36 6 8 mph 1014.8mb 55f 57f
1:30 6 7 mph 1014.7mb 55f 57f
1:24 7
mph
1014.8mb 55f 57f
1:18 7
mph
1014.8mb 55f 57f
1:12 6
mph
1014.7mb 55f 57f
1:06 6
mph
1014.7mb 55f 58f
1:00 6
mph
1014.6mb 56f 58f
12:54 5
mph
1014.6mb 56f 58f
12:48 3 6 mph 1014.5mb 56f 58f
12:42 6 7 mph 1014.5mb 56f 58f
12:36 7
mph
1014.3mb 56f 59f
12:30 6 7 mph 1014.3mb 56f 59f
12:24 6 7 mph 1014.2mb 56f 59f
12:18 6 7 mph 1014.2mb 56f 59f
12:12 6 7 mph 1014.1mb 56f 59f
12:06 6 9 mph 1014mb 56f 60f
12:00 7 9 mph 1014mb 56f 59f
jue 08/28 11:54 7 8 mph 1013.9mb 56f 59f
11:48 7 8 mph 1013.9mb 56f 60f
11:42 6 8 mph 1013.9mb 57f 60f
11:36 2 5 mph 1013.9mb 57f 60f
11:30 5 7 mph 1013.9mb 57f 61f
11:24 6 7 mph 1013.8mb 57f 61f
11:18 6 8 mph 1013.8mb 57f 61f
11:12 6 9 mph 1013.7mb 57f 61f
11:06 5 7 mph 1013.6mb 57f 62f
11:00 6 8 mph 1013.5mb 57f 62f
10:54 6 8 mph 1013.5mb 56f 62f
10:48 7 9 mph 1013.5mb 56f 62f
10:42 7 10 mph 1013.4mb 57f 63f
10:36 6 8 mph 1013.4mb 57f 63f
10:30 7 10 mph 1013.3mb 57f 63f
10:24 9 11 mph 1013.2mb 58f 63f
10:18 9 11 mph 1013.2mb 58f 63f
10:12 9 11 mph 1013.2mb 59f 63f
10:06 9 10 mph 1013.2mb 59f 63f
10:00 8 9 mph 1013.1mb 61f 63f
9:54 7 9 mph 1013mb 64f 64f
9:48 5 7 mph 1013mb 64f 64f
9:42 6 8 mph 1013mb 64f 63f
9:36 6 7 mph 1012.8mb 64f 64f
9:30 7 9 mph 1012.7mb 64f 64f
9:24 9 11 mph 1012.5mb 64f 64f
9:18 10 11 mph 1012.5mb 63f 64f
9:12 8 10 mph 1012.5mb 63f 64f
9:06 7 8 mph 1012.5mb 63f 64f
9:00 7 8 mph 1012.6mb 63f 64f
8:54 7 10 mph 1012.5mb 62f 64f
8:48 10 14 mph 1012.4mb 62f 65f
8:42 10 13 mph 1012.2mb 62f 65f
8:36 9 11 mph 1012.1mb 62f 65f
8:30 9 10 mph 1012.1mb 61f 65f
8:24 8 10 mph 1012mb 61f 65f
8:18 7 9 mph 1012mb 61f 65f
8:12 8 11 mph 1011.9mb 61f 65f
8:06 9 13 mph 1011.7mb 61f 66f
8:00 9 11 mph 1011.6mb 61f 66f
7:54 9 13 mph 1011.5mb 61f 66f
7:48 10 14 mph 1011.4mb 60f 67f
7:42 9 14 mph 1011.3mb 60f 67f
7:36 8 11 mph 1011.2mb 60f 67f
7:30 9 13 mph 1011.3mb 60f 67f
7:24 11 14 mph 1011.1mb 60f 68f
7:18 13 17 mph 1010.8mb 60f 68f
7:12 11 16 mph 1010.8mb 60f 69f
7:06 11 15 mph 1010.6mb 60f 69f
7:00 11 14 mph 1010.5mb 60f 69f
6:54 11 16 mph 1010.5mb 60f 70f
6:48 10 18 mph 1010.4mb 60f 70f
6:42 13 18 mph 1010.3mb 60f 71f
6:36 13 15 mph 1010.2mb 60f 71f
6:30 11 14 mph 1010.1mb 60f 71f
6:24 11 16 mph 1009.9mb 60f 72f
6:18 13 18 mph 1009.8mb 60f 72f
6:12 14 18 mph 1009.6mb 61f 73f
6:06 13 16 mph 1009.7mb 61f 73f
6:00 14 17 mph 1009.6mb 62f 73f
5:54 8 17 mph 1009.5mb 62f 73f
5:48 13 15 mph 1009.4mb 62f 73f
5:42 8 14 mph 1009.3mb 62f 73f
5:36 11 15 mph 1009.2mb 62f 74f
5:30 9 13 mph 1009.1mb 62f 74f
5:24 10 14 mph 1009mb 61f 74f
5:18 10 14 mph 1008.9mb 61f 74f
5:12 9 15 mph 1008.9mb 61f 73f
5:06 13 17 mph 1008.7mb 60f 73f
5:00 10 16 mph 1008.7mb 60f 73f
4:54 13 17 mph 1008.6mb 60f 74f
4:48 9 17 mph 1008.5mb 60f 74f
4:42 15 20 mph 1008.4mb 59f 74f
4:36 10 14 mph 1008.4mb 59f 75f
4:30 8 16 mph 1008.3mb 59f 75f
4:24 10 14 mph 1008.3mb 59f 74f
4:18 9 17 mph 1008.3mb 59f 74f
4:12 15 18 mph 1008.2mb 58f 74f
4:06 13 20 mph 1008mb 58f 76f
4:00 11 23 mph 1008mb 58f 76f
3:54 15 18 mph 1008mb 58f 75f
3:48 16 22 mph 1007.9mb 57f 75f
3:42 14 22 mph 1007.8mb 57f 75f
3:36 9 14 mph 1007.8mb 57f 75f
3:30 11 15 mph 1007.8mb 57f 74f
3:24 13 16 mph 1007.7mb 56f 74f
3:18 13 17 mph 1007.6mb 56f 74f
3:12 14 20 mph 1007.6mb 56f 75f
3:06 14 23 mph 1007.5mb 56f 76f
3:00 14 18 mph 1007.4mb 56f 76f
2:54 9 15 mph 1007.4mb 56f 76f
2:48 10 15 mph 1007.5mb 55f 76f
2:42 11 20 mph 1007.4mb 55f 76f
2:36 15 21 mph 1007.5mb 55f 76f
2:30 15 28 mph 1007.5mb 55f 75f
2:24 21 23 mph 1007.3mb 55f 75f
2:18 17 24 mph 1007.4mb 55f 76f
2:12 15 21 mph 1007.4mb 56f 75f
2:06 13 18 mph 1007.5mb 56f 75f
2:00 14 20 mph 1007.5mb 56f 76f
1:54 10 18 mph 1007.5mb 56f 77f
1:48 11 16 mph 1007.5mb 56f 76f
1:42 14 18 mph 1007.6mb 55f 75f
1:36 15 20 mph 1007.6mb 55f 76f
1:30 11 28 mph 1007.6mb 55f 76f
1:24 13 28 mph 1007.5mb 55f 77f
1:18 11 22 mph 1007.6mb 55f 76f
1:12 13 20 mph 1007.5mb 55f 76f
1:06 13 17 mph 1007.6mb 56f 76f
1:00 13 18 mph 1007.6mb 56f 76f
12:54 13 17 mph 1007.7mb 56f 76f
12:48 13 22 mph 1007.6mb 56f 76f
12:42 14 20 mph 1007.5mb 56f 76f
12:36 11 18 mph 1007.6mb 56f 76f
12:30 13 17 mph 1007.6mb 56f 75f
12:24 10 15 mph 1007.6mb 56f 75f
12:18 13 16 mph 1007.6mb 56f 75f
12:12 13 16 mph 1007.7mb 56f 74f
12:06 14 18 mph 1007.8mb 57f 74f
12:00 10 16 mph 1007.8mb 57f 74f
11:54 10 17 mph 1007.9mb 57f 75f
11:48 7 13 mph 1008mb 57f 75f
11:42 8 16 mph 1008.1mb 57f 74f
11:36 10 17 mph 1008.1mb 57f 74f
11:30 6 10 mph 1008.2mb 57f 73f
11:24 8 10 mph 1008.3mb 57f 73f
11:18 10 14 mph 1008.3mb 58f 73f
11:12 10 14 mph 1008.4mb 58f 72f
11:06 11 14 mph 1008.4mb 58f 72f
11:00 10 14 mph 1008.5mb 58f 72f
10:54 10 15 mph 1008.6mb 59f 73f
10:48 10 15 mph 1008.6mb 59f 73f
10:42 7 14 mph 1008.7mb 59f 73f
10:36 11 14 mph 1008.7mb 59f 73f
10:30 9 14 mph 1008.8mb 59f 72f
10:24 9 14 mph 1008.9mb 59f 72f
10:18 11 13 mph 1008.9mb 59f 72f
10:12 10 15 mph 1009mb 59f 72f
10:06 11 14 mph 1009mb 59f 72f
10:00 10 14 mph 1009mb 60f 72f
9:54 13 16 mph 1009mb 60f 71f
9:48 11 16 mph 1009mb 61f 72f
9:42 10 15 mph 1009.1mb 62f 72f
9:36 13 16 mph 1009.1mb 62f 72f
9:30 10 15 mph 1009.1mb 62f 72f
9:24 14 17 mph 1009.1mb 61f 71f
9:18 13 17 mph 1009.1mb 61f 71f
9:12 10 14 mph 1009.1mb 61f 71f
9:06 11 15 mph 1009.2mb 61f 71f
9:00 9 14 mph 1009.2mb 61f 71f
8:54 9 13 mph 1009.2mb 61f 71f
8:48 9 13 mph 1009.2mb 60f 71f
8:42 8 15 mph 1009.2mb 60f 71f
8:36 10 15 mph 1009.1mb 59f 70f
8:30 11 16 mph 1009.1mb 59f 70f
8:24 9 13 mph 1009.1mb 59f 70f
8:18 10 14 mph 1009.1mb 59f 70f
8:12 11 14 mph 1009.1mb 59f 70f
8:06 10 14 mph 1009.1mb 59f 70f
8:00 11 14 mph 1009.1mb 59f 69f
7:54 10 13 mph 1009.2mb 59f 69f
7:48 8 13 mph 1009.2mb 59f 69f
7:42 10 14 mph 1009.1mb 59f 69f
7:36 10 14 mph 1009.1mb 59f 68f
7:30 8 13 mph 1009mb 59f 68f
7:24 9 13 mph 1009mb 59f 68f
7:18 10 15 mph 1009mb 59f 67f
7:12 10 14 mph 1008.9mb 59f 67f
7:06 9 11 mph 1008.9mb 59f 67f
7:00 9 13 mph 1008.9mb 58f 67f
6:54 9 11 mph 1008.9mb 58f 66f
6:48 8 10 mph 1008.8mb 58f 66f
6:42 9 11 mph 1008.8mb 58f 66f
6:36 7 9 mph 1008.8mb 58f 66f
6:30 7 9 mph 1008.7mb 58f 66f
6:24 7 8 mph 1008.7mb 58f 66f
6:18 7 8 mph 1008.7mb 58f 66f
6:12 7 8 mph 1008.6mb 58f 66f
6:06 6 7 mph 1008.6mb 58f 66f
6:00 6 7 mph 1008.6mb 58f 66f
5:54 7 8 mph 1008.6mb 58f 66f
5:48 7 9 mph 1008.5mb 58f 66f
5:42 8 9 mph 1008.5mb 58f 67f
5:36 7 9 mph 1008.5mb 59f 67f
5:30 7 9 mph 1008.5mb 59f 67f
5:24 7 9 mph 1008.5mb 59f 67f
5:18 7 8 mph 1008.6mb 59f 67f
5:12 7 8 mph 1008.6mb 59f 68f
5:06 7 8 mph 1008.5mb 59f 68f
5:00 7 8 mph 1008.5mb 58f 68f
4:54 6 7 mph 1008.5mb 58f 68f
4:48 6
mph
1008.5mb 58f 68f
4:42 5 6 mph 1008.5mb 58f 68f
4:36 5
mph
1008.5mb 58f 68f
4:30 2 3 mph 1008.5mb 58f 68f
4:24 3
mph
1008.5mb 58f 68f
4:18 2 3 mph 1008.4mb 58f 68f
4:12 5
mph
1008.4mb 58f 69f
4:06 3
mph
1008.3mb 57f 69f
4:00 2
mph
1008.3mb 57f 69f
3:54  -  1 mph 1008.3mb 57f 68f
3:48  -  1 mph 1008.4mb 57f 68f
3:42  -  1 mph 1008.4mb 57f 68f
3:36 1 2 mph 1008.4mb 57f 69f
3:30 2
mph
1008.4mb 57f 69f
3:24 2 3 mph 1008.4mb 57f 69f
3:18 3
mph
1008.5mb 57f 69f
3:12 2 3 mph 1008.5mb 57f 69f
3:06  -  1 mph 1008.5mb 57f 69f
3:00  -  1 mph 1008.5mb 57f 69f
2:54 1 3 mph 1008.6mb 57f 69f
2:48 3 5 mph 1008.6mb 57f 69f
2:42 5 6 mph 1008.6mb 57f 70f
2:36 5 8 mph 1008.6mb 57f 70f
2:30 7 9 mph 1008.9mb 57f 70f
2:24 3 5 mph 1009mb 57f 70f
2:18 5
mph
1008.9mb 57f 70f
2:12 3 6 mph 1008.7mb 56f 70f
2:06 5 7 mph 1009mb 56f 70f
2:00 3 6 mph 1009.1mb 56f 70f
1:54 3 5 mph 1009mb 56f 71f
1:48 2 3 mph 1008.9mb 56f 71f
1:42 2 5 mph 1008.9mb 56f 71f
1:36 3 5 mph 1008.9mb 56f 71f
1:30 3 6 mph 1009mb 56f 71f
1:24 3 5 mph 1009.1mb 56f 71f
1:18 3
mph
1009mb 56f 71f
1:12 2 3 mph 1009mb 56f 71f
1:06 3 6 mph 1009.1mb 56f 71f
1:00 5 6 mph 1009mb 56f 72f
12:54 6 7 mph 1009mb 57f 72f
12:48 5 6 mph 1009mb 57f 71f
12:42 6 7 mph 1009mb 57f 72f
12:36 6 7 mph 1009mb 57f 72f
12:30 6 7 mph 1009mb 57f 72f
12:24 6 7 mph 1009mb 57f 72f
12:18 6 9 mph 1008.8mb 57f 72f
12:12 7 10 mph 1008.8mb 57f 72f
12:06 8 10 mph 1008.7mb 57f 72f
12:00 9 11 mph 1008.7mb 57f 73f
mié 08/27 11:54 9 11 mph 1008.7mb 57f 73f
11:48 9 13 mph 1008.8mb 57f 73f
11:42 10 14 mph 1008.8mb 57f 74f
11:36 10 13 mph 1008.9mb 57f 74f
11:30 10 13 mph 1008.9mb 57f 74f
11:24 10 13 mph 1009mb 57f 74f
11:18 10 13 mph 1009.1mb 57f 74f
11:12 9 14 mph 1009mb 57f 75f
11:06 11 16 mph 1008.9mb 57f 75f
11:00 10 13 mph 1008.9mb 57f 75f
10:54 9 13 mph 1009mb 57f 75f
10:48 7 10 mph 1009mb 57f 76f
10:42 6 9 mph 1008.9mb 57f 77f
10:36 6 9 mph 1008.9mb 57f 78f
10:30 6 9 mph 1008.9mb 57f 78f
10:24 5 9 mph 1009mb 57f 77f
10:18 5 8 mph 1009.1mb 57f 77f
10:12 5 7 mph 1009.1mb 57f 77f
10:06 5 7 mph 1009.2mb 58f 77f
10:00 3 6 mph 1009.3mb 58f 78f
9:54 5 6 mph 1009.4mb 59f 78f
9:48 5 7 mph 1009.4mb 59f 78f
9:42 6 8 mph 1009.4mb 59f 78f
9:36 6 8 mph 1009.5mb 59f 78f
9:30 6 9 mph 1009.6mb 60f 78f
9:24 6 7 mph 1009.6mb 60f 78f
9:18 5 7 mph 1009.6mb 61f 78f
9:12 5 7 mph 1009.6mb 63f 78f
9:06 5 7 mph 1009.6mb 66f 78f
9:00 5 6 mph 1009.6mb 66f 78f
8:54 3 6 mph 1009.5mb 66f 78f
8:48 5 6 mph 1009.6mb 66f 78f
8:42 6
mph
1009.5mb 65f 78f
8:36 5 6 mph 1009.4mb 64f 78f
8:30 3 5 mph 1009.3mb 64f 79f
8:24 3 5 mph 1009.3mb 64f 79f
8:18 3 5 mph 1009.2mb 63f 79f
8:12 3 6 mph 1009.2mb 63f 79f
8:06 5
mph
1009.1mb 62f 79f
8:00 5 6 mph 1009.1mb 62f 79f
7:54 5 7 mph 1009.1mb 62f 80f
7:48 3 5 mph 1009.1mb 62f 80f
7:42 3 6 mph 1009.1mb 62f 80f
7:36 3 6 mph 1009mb 62f 81f
7:30 3 6 mph 1009.1mb 62f 81f
7:24 3 5 mph 1009.2mb 62f 82f
7:18 5 6 mph 1009.2mb 62f 82f
7:12 3 7 mph 1009.3mb 62f 82f
7:06 5 8 mph 1009.2mb 62f 82f
7:00 6 8 mph 1009.2mb 62f 83f
6:54 5 7 mph 1009.1mb 61f 83f
6:48 3 8 mph 1009mb 61f 84f
6:42 5 7 mph 1009mb 61f 84f
6:36 5 7 mph 1009mb 61f 85f
6:30 5 8 mph 1008.9mb 61f 85f
6:24 6 8 mph 1008.7mb 61f 85f
6:18 5 7 mph 1008.8mb 61f 85f
6:12 5 8 mph 1008.8mb 61f 85f
6:06 6 8 mph 1009mb 60f 85f
6:00 5 10 mph 1009.1mb 60f 85f
5:54 5 10 mph 1009.2mb 60f 85f
5:48 5 11 mph 1009.2mb 60f 85f
5:42 7 13 mph 1009.2mb 60f 86f
5:36 7 13 mph 1009.1mb 60f 86f
5:30 8 13 mph 1009.1mb 60f 86f
5:24 9 13 mph 1009.1mb 61f 86f
5:18 9 14 mph 1009.1mb 61f 87f
5:12 3 9 mph 1009.2mb 62f 86f
5:06 3 8 mph 1009.2mb 63f 87f
5:00 5 15 mph 1009.1mb 63f 87f
4:54 6 10 mph 1009.1mb 62f 87f
4:48 6 14 mph 1009.1mb 62f 87f
4:42 9 14 mph 1009mb 62f 87f
4:36 7 10 mph 1009mb 61f 87f
4:30 7 10 mph 1009mb 61f 88f
4:24 8 13 mph 1009mb 61f 87f
4:18 7 11 mph 1009mb 60f 88f
4:12 5 11 mph 1009.1mb 60f 88f
4:06 9 14 mph 1009.1mb 60f 87f
4:00 5 13 mph 1009.2mb 60f 88f
3:54 10 13 mph 1009.2mb 59f 86f
3:48 8 11 mph 1009.2mb 59f 87f
3:42 8 11 mph 1009.1mb 59f 87f
3:36 6 13 mph 1009.1mb 59f 88f
3:30 10 14 mph 1009.1mb 59f 87f
3:24 9 14 mph 1009.2mb 58f 87f
3:18 10 15 mph 1009.2mb 58f 87f
3:12 9 15 mph 1009.2mb 58f 88f
3:06 10 14 mph 1009.2mb 58f 87f
3:00 6 10 mph 1009.2mb 58f 87f
2:54 8 11 mph 1009.2mb 58f 87f
2:48 6 11 mph 1009.3mb 57f 87f
2:42 7 18 mph 1009.4mb 57f 87f
2:36 10 18 mph 1009.4mb 57f 86f
2:30 10 15 mph 1009.5mb 57f 85f
2:24 8 15 mph 1009.7mb 57f 86f
2:18 8 13 mph 1009.7mb 57f 85f
2:12 8 13 mph 1009.8mb 57f 83f
2:06 6 14 mph 1009.8mb 57f -
2:00 8 11 mph 1010mb 57f -
1:54 9 15 mph 1010.2mb 56f -
1:48 8 10 mph 1010.2mb 56f -
1:42 7 11 mph 1010.2mb 56f 86f
1:36 8 14 mph 1010.3mb 56f 85f
1:30 10 15 mph 1010.3mb 56f 83f
1:24 9 14 mph 1010.4mb 57f 84f
1:18 8 15 mph 1010.4mb 57f 84f
1:12 8 15 mph 1010.5mb 57f 82f
1:06 8 13 mph 1010.5mb 57f 84f
1:00 8 16 mph 1010.7mb 57f 85f
12:54 9 15 mph 1010.8mb 57f 84f
12:48 9 14 mph 1010.8mb 57f 84f
12:42 9 15 mph 1010.8mb 57f 84f
12:36 11 16 mph 1011mb 57f 83f
12:30 8 16 mph 1010.9mb 57f 84f
12:24 9 14 mph 1011mb 57f 83f
12:18 11 16 mph 1011.1mb 57f 83f
12:12 8 14 mph 1011.2mb 57f 83f
12:06 10 15 mph 1011.2mb 57f 83f
12:00 8 14 mph 1011.2mb 56f 82f
11:54 7 14 mph 1011.3mb 56f 83f
11:48 8 15 mph 1011.4mb 56f 82f
11:42 9 14 mph 1011.5mb 56f 82f
11:36 7 14 mph 1011.6mb 56f 81f
11:30 9 15 mph 1011.8mb 56f 80f
11:24 7 10 mph 1011.8mb 56f 80f
11:18 5 10 mph 1011.8mb 57f 80f
11:12 6 11 mph 1011.9mb 57f 79f
11:06 7 11 mph 1012mb 57f 79f
11:00 8 13 mph 1012mb 57f 79f
10:54 8 11 mph 1012mb 57f 79f
10:48 7 11 mph 1012.1mb 57f 79f
10:42 6 10 mph 1012.2mb 58f 79f
10:36 7 10 mph 1012.3mb 58f 79f
10:30 7 11 mph 1012.3mb 58f 79f
10:24 8 11 mph 1012.3mb 59f 78f
10:18 6 10 mph 1012.3mb 59f 79f
10:12 6 10 mph 1012.3mb 59f 78f
10:06 3 8 mph 1012.3mb 60f 79f
10:00 7 9 mph 1012.3mb 60f 78f
9:54 6 10 mph 1012.4mb 60f 78f
9:48 6 9 mph 1012.4mb 60f 77f
9:42 6 9 mph 1012.4mb 60f 77f
9:36 6 10 mph 1012.4mb 60f 77f
9:30 6 10 mph 1012.5mb 60f 77f
9:24 7 13 mph 1012.5mb 61f 76f
9:18 7 10 mph 1012.7mb 61f 76f
9:12 5 10 mph 1012.7mb 62f 76f
9:06 9 14 mph 1012.6mb 63f 75f
9:00 7 16 mph 1012.6mb 63f 75f
8:54 10 14 mph 1012.6mb 63f 74f
8:48 6 10 mph 1012.6mb 63f 75f
8:42 7 13 mph 1012.7mb 62f 74f
8:36 5 9 mph 1012.8mb 62f 73f
8:30 7 11 mph 1012.8mb 62f 73f
8:24 5 8 mph 1012.8mb 62f 73f
8:18 7 10 mph 1012.8mb 62f 72f
8:12 6 10 mph 1012.9mb 62f 73f
8:06 3 9 mph 1013mb 62f 73f
8:00 5 10 mph 1013mb 62f 73f
7:54 9 11 mph 1013mb 62f 72f
7:48 6 7 mph 1013mb 62f 72f
7:42 3 6 mph 1013mb 62f 72f
7:36 6 8 mph 1013mb 62f 72f
7:30 3 8 mph 1013mb 62f 72f
7:24 3 7 mph 1013mb 62f 71f
7:18 3 7 mph 1013mb 61f 71f
7:12 3 7 mph 1013mb 61f 71f
7:06 3 8 mph 1013mb 61f 70f
7:00 3 6 mph 1013mb 61f 70f
6:54 3 7 mph 1013.1mb 61f 70f
6:48 5 8 mph 1013.1mb 61f 69f
6:42 6 10 mph 1013mb 61f 69f
6:36 5 9 mph 1013mb 61f 69f
6:30 8 11 mph 1013mb 61f 69f
6:24 6 15 mph 1013mb 61f 69f
6:18 8 15 mph 1013mb 61f 70f
6:12 8 13 mph 1013mb 61f 70f
6:06 8 16 mph 1013mb 61f 69f
6:00 9 15 mph 1013mb 61f 69f
5:54 7 13 mph 1013.1mb 61f 69f
5:48 8 18 mph 1013.1mb 61f 69f
5:42 9 17 mph 1013.1mb 61f 69f